Time,TemperatureF,DewpointF,PressureIn,WindDirection,WindDirectionDegrees,WindSpeedMPH,WindSpeedGustMPH,Humidity,HourlyPrecipIn,Conditions,Clouds,dailyrainin,SoftwareType,DateUTC
2013-04-30 00:03:00,36.1,18.8,30.00,SE,135,0.0,0.0,49,0.00,RA,,0.00,WeatherDisplay:10.37,2013-04-30 08:03:00,
2013-04-30 00:08:00,36.1,19.3,30.00,SE,135,0.0,0.0,50,0.00,RA,,0.00,WeatherDisplay:10.37,2013-04-30 08:08:00,
2013-04-30 00:13:00,36.0,19.1,30.00,SE,135,0.0,0.0,50,0.00,CLR,,0.00,WeatherDisplay:10.37,2013-04-30 08:13:00,
2013-04-30 00:18:00,36.0,19.1,30.00,SSE,158,0.0,0.0,50,0.00,CLR,,0.00,WeatherDisplay:10.37,2013-04-30 08:18:00,
2013-04-30 00:23:00,36.0,19.1,30.00,SW,225,0.0,0.0,50,0.00,CLR,,0.00,WeatherDisplay:10.37,2013-04-30 08:23:00,
2013-04-30 00:28:00,36.1,19.7,30.00,SSW,202,0.0,0.0,51,0.00,CLR,,0.00,WeatherDisplay:10.37,2013-04-30 08:28:00,
2013-04-30 00:33:00,36.1,19.7,30.00,SSE,158,0.0,0.0,51,0.00,CLR,,0.00,WeatherDisplay:10.37,2013-04-30 08:33:00,
2013-04-30 00:38:00,36.3,19.9,30.00,ESE,112,0.0,0.0,51,0.00,CLR,,0.00,WeatherDisplay:10.37,2013-04-30 08:38:00,
2013-04-30 00:43:00,36.5,20.1,30.00,SSE,158,1.1,0.0,51,0.00,CLR,,0.00,WeatherDisplay:10.37,2013-04-30 08:43:00,
2013-04-30 00:48:00,36.9,20.4,30.00,SSE,158,0.0,0.0,51,0.00,CLR,,0.00,WeatherDisplay:10.37,2013-04-30 08:48:00,
2013-04-30 00:53:00,37.2,20.7,30.00,ESE,112,1.1,1.4,51,0.00,CLR,,0.00,WeatherDisplay:10.37,2013-04-30 08:53:00,
2013-04-30 00:58:00,37.4,20.4,30.00,SSE,158,3.8,3.8,50,0.00,CLR,,0.00,WeatherDisplay:10.37,2013-04-30 08:58:00,
2013-04-30 01:03:00,37.8,20.8,30.00,ESE,112,1.1,1.6,50,0.00,CLR,,0.00,WeatherDisplay:10.37,2013-04-30 09:03:00,
2013-04-30 01:08:00,37.9,20.9,30.00,SSE,158,2.4,0.0,50,0.00,CLR,,0.00,WeatherDisplay:10.37,2013-04-30 09:08:00,
2013-04-30 01:13:00,37.9,20.5,30.00,East,90,1.1,2.0,49,0.00,CLR,,0.00,WeatherDisplay:10.37,2013-04-30 09:13:00,
2013-04-30 01:18:00,38.5,21.0,30.00,SSE,158,2.9,2.9,49,0.00,CLR,,0.00,WeatherDisplay:10.37,2013-04-30 09:18:00,
2013-04-30 01:23:00,38.5,21.0,30.00,SSE,158,2.3,2.3,49,0.00,CLR,,0.00,WeatherDisplay:10.37,2013-04-30 09:23:00,
2013-04-30 01:28:00,38.7,21.1,30.00,SE,135,1.1,1.1,49,0.00,CLR,,0.00,WeatherDisplay:10.37,2013-04-30 09:28:00,
2013-04-30 01:33:00,38.7,21.1,30.00,WSW,248,1.1,1.1,49,0.00,CLR,,0.00,WeatherDisplay:10.37,2013-04-30 09:33:00,
2013-04-30 01:38:00,38.7,20.6,30.00,South,180,1.1,1.1,48,0.00,CLR,,0.00,WeatherDisplay:10.37,2013-04-30 09:38:00,
2013-04-30 01:43:00,38.7,20.6,30.00,SW,225,2.3,2.3,48,0.00,CLR,,0.00,WeatherDisplay:10.37,2013-04-30 09:43:00,
2013-04-30 01:48:00,38.5,20.5,30.00,South,180,0.0,0.0,48,0.00,CLR,,0.00,WeatherDisplay:10.37,2013-04-30 09:48:00,
2013-04-30 01:53:00,38.5,20.5,30.00,SW,225,0.0,0.0,48,0.00,CLR,,0.00,WeatherDisplay:10.37,2013-04-30 09:53:00,
2013-04-30 01:58:00,38.5,21.0,30.00,SE,135,2.9,2.9,49,0.00,CLR,,0.00,WeatherDisplay:10.37,2013-04-30 09:58:00,
2013-04-30 02:03:00,38.5,21.0,30.00,SSW,202,0.0,0.0,49,0.00,CLR,,0.00,WeatherDisplay:10.37,2013-04-30 10:03:00,
2013-04-30 02:08:00,38.3,20.8,30.00,SW,225,0.0,0.0,49,0.00,CLR,,0.00,WeatherDisplay:10.37,2013-04-30 10:08:00,
2013-04-30 02:13:00,38.3,20.8,29.97,SW,225,1.6,1.6,49,0.00,CLR,,0.00,WeatherDisplay:10.37,2013-04-30 10:13:00,
2013-04-30 02:18:00,38.3,20.8,29.97,WSW,248,1.1,0.0,49,0.00,CLR,,0.00,WeatherDisplay:10.37,2013-04-30 10:18:00,
2013-04-30 02:23:00,38.3,20.8,29.97,SW,225,1.1,1.1,49,0.00,CLR,,0.00,WeatherDisplay:10.37,2013-04-30 10:23:00,
2013-04-30 02:28:00,38.3,20.8,29.97,SE,135,2.4,2.4,49,0.00,CLR,,0.00,WeatherDisplay:10.37,2013-04-30 10:28:00,
2013-04-30 02:33:00,38.1,21.1,29.97,ESE,112,3.5,3.5,50,0.00,CLR,,0.00,WeatherDisplay:10.37,2013-04-30 10:33:00,
2013-04-30 02:38:00,38.1,21.1,29.97,SSE,158,2.9,2.9,50,0.00,CLR,,0.00,WeatherDisplay:10.37,2013-04-30 10:38:00,
2013-04-30 02:43:00,38.1,21.1,29.97,SSE,158,6.9,6.9,50,0.00,CLR,,0.00,WeatherDisplay:10.37,2013-04-30 10:43:00,
2013-04-30 02:48:00,38.1,21.1,29.97,SW,225,2.2,2.2,50,0.00,CLR,,0.00,WeatherDisplay:10.37,2013-04-30 10:48:00,
2013-04-30 02:53:00,38.1,21.1,29.97,ESE,112,2.3,2.3,50,0.00,CLR,,0.00,WeatherDisplay:10.37,2013-04-30 10:53:00,
2013-04-30 02:58:00,38.1,21.1,29.97,SSW,202,1.1,0.0,50,0.00,CLR,,0.00,WeatherDisplay:10.37,2013-04-30 10:58:00,
2013-04-30 03:03:00,37.9,21.4,29.97,NE,45,2.3,2.3,51,0.00,CLR,,0.00,WeatherDisplay:10.37,2013-04-30 11:03:00,
2013-04-30 03:08:00,37.9,21.4,29.97,SSE,158,2.3,2.3,51,0.00,CLR,,0.00,WeatherDisplay:10.37,2013-04-30 11:08:00,
2013-04-30 03:13:00,37.9,21.4,29.97,South,180,2.3,2.3,51,0.00,CLR,,0.00,WeatherDisplay:10.37,2013-04-30 11:13:00,
2013-04-30 03:18:00,37.8,21.2,29.97,ESE,112,1.1,1.1,51,0.00,CLR,,0.00,WeatherDisplay:10.37,2013-04-30 11:18:00,
2013-04-30 03:23:00,37.8,21.2,29.97,South,180,4.6,4.6,51,0.00,CLR,,0.00,WeatherDisplay:10.37,2013-04-30 11:23:00,
2013-04-30 03:28:00,37.6,21.1,29.97,SSW,202,1.1,1.1,51,0.00,CLR,,0.00,WeatherDisplay:10.37,2013-04-30 11:28:00,
2013-04-30 03:33:00,37.6,21.1,29.97,SSW,202,2.3,2.3,51,0.00,CLR,,0.00,WeatherDisplay:10.37,2013-04-30 11:33:00,
2013-04-30 03:38:00,37.6,21.1,29.97,SSE,158,2.3,0.0,51,0.00,CLR,,0.00,WeatherDisplay:10.37,2013-04-30 11:38:00,
2013-04-30 03:43:00,37.6,21.5,29.97,SSW,202,2.3,2.3,52,0.00,CLR,,0.00,WeatherDisplay:10.37,2013-04-30 11:43:00,
2013-04-30 03:48:00,37.4,20.9,29.97,SE,135,1.1,0.0,51,0.00,CLR,,0.00,WeatherDisplay:10.37,2013-04-30 11:48:00,
2013-04-30 03:53:00,37.2,21.2,29.97,ESE,112,0.0,0.0,52,0.00,CLR,,0.00,WeatherDisplay:10.37,2013-04-30 11:53:00,
2013-04-30 03:58:00,37.2,21.2,29.94,ENE,68,0.0,0.0,52,0.00,CLR,,0.00,WeatherDisplay:10.37,2013-04-30 11:58:00,
2013-04-30 04:03:00,37.2,21.2,29.94,ESE,112,0.0,0.0,52,0.00,CLR,,0.00,WeatherDisplay:10.37,2013-04-30 12:03:00,
2013-04-30 04:08:00,37.2,21.2,29.94,East,90,2.3,2.3,52,0.00,CLR,,0.00,WeatherDisplay:10.37,2013-04-30 12:08:00,
2013-04-30 04:13:00,37.0,21.0,29.94,SE,135,1.1,0.0,52,0.00,CLR,,0.00,WeatherDisplay:10.37,2013-04-30 12:13:00,
2013-04-30 04:18:00,37.0,21.0,29.94,ESE,112,0.0,0.0,52,0.00,CLR,,0.00,WeatherDisplay:10.37,2013-04-30 12:18:00,
2013-04-30 04:23:00,37.0,21.0,29.94,SW,225,0.0,0.0,52,0.00,CLR,,0.00,WeatherDisplay:10.37,2013-04-30 12:23:00,
2013-04-30 04:28:00,37.0,21.0,29.94,SSW,202,0.0,0.0,52,0.00,CLR,,0.00,WeatherDisplay:10.37,2013-04-30 12:28:00,
2013-04-30 04:33:00,37.0,21.0,29.94,SSW,202,0.0,0.0,52,0.00,CLR,,0.00,WeatherDisplay:10.37,2013-04-30 12:33:00,
2013-04-30 04:38:00,36.9,20.9,29.94,SSW,202,0.0,0.0,52,0.00,CLR,,0.00,WeatherDisplay:10.37,2013-04-30 12:38:00,
2013-04-30 04:43:00,36.9,20.9,29.94,North,0,0.0,0.0,52,0.00,CLR,,0.00,WeatherDisplay:10.37,2013-04-30 12:43:00,
2013-04-30 04:48:00,36.5,21.0,29.94,NNW,338,0.0,0.0,53,0.00,CLR,,0.00,WeatherDisplay:10.37,2013-04-30 12:48:00,
2013-04-30 04:53:00,36.1,21.1,29.94,North,0,0.0,0.0,54,0.00,CLR,,0.00,WeatherDisplay:10.37,2013-04-30 12:53:00,
2013-04-30 04:58:00,36.0,21.3,29.94,North,0,0.0,0.0,55,0.00,CLR,,0.00,WeatherDisplay:10.37,2013-04-30 12:58:00,
2013-04-30 05:03:00,35.8,22.4,29.94,NNW,338,0.0,0.0,58,0.00,CLR,,0.00,WeatherDisplay:10.37,2013-04-30 13:03:00,
2013-04-30 05:08:00,35.6,21.9,29.94,NNW,338,0.0,0.0,57,0.00,CLR,,0.00,WeatherDisplay:10.37,2013-04-30 13:08:00,
2013-04-30 05:13:00,35.4,22.5,29.94,NNW,338,0.0,0.0,59,0.00,CLR,,0.00,WeatherDisplay:10.37,2013-04-30 13:13:00,
2013-04-30 05:18:00,35.2,22.7,29.94,WNW,292,0.0,0.0,60,0.00,CLR,,0.00,WeatherDisplay:10.37,2013-04-30 13:18:00,
2013-04-30 05:23:00,35.1,22.2,29.94,WNW,292,0.0,0.0,59,0.00,CLR,,0.00,WeatherDisplay:10.37,2013-04-30 13:23:00,
2013-04-30 05:28:00,35.1,23.0,29.94,North,0,0.0,0.0,61,0.00,CLR,,0.00,WeatherDisplay:10.37,2013-04-30 13:28:00,
2013-04-30 05:33:00,34.9,22.8,29.94,NW,315,0.0,0.0,61,0.00,CLR,,0.00,WeatherDisplay:10.37,2013-04-30 13:33:00,
2013-04-30 05:38:00,34.9,22.8,29.94,NNW,338,0.0,0.0,61,0.00,CLR,,0.00,WeatherDisplay:10.37,2013-04-30 13:38:00,
2013-04-30 05:43:00,34.9,23.2,29.94,NNW,338,0.0,0.0,62,0.00,CLR,,0.00,WeatherDisplay:10.37,2013-04-30 13:43:00,
2013-04-30 05:48:00,34.7,23.4,29.94,NNW,338,0.0,0.0,63,0.00,CLR,,0.00,WeatherDisplay:10.37,2013-04-30 13:48:00,
2013-04-30 05:53:00,34.7,23.8,29.94,NNW,338,0.0,0.0,64,0.04,RA,,0.04,WeatherDisplay:10.37,2013-04-30 13:53:00,
2013-04-30 05:58:00,34.7,23.4,29.91,NNW,338,0.0,0.0,63,0.04,RA,,0.04,WeatherDisplay:10.37,2013-04-30 13:58:00,
2013-04-30 06:03:00,34.7,23.8,29.91,NW,315,0.0,0.0,64,0.04,,,0.04,WeatherDisplay:10.37,2013-04-30 14:03:00,
2013-04-30 06:08:00,34.7,23.8,29.91,NW,315,0.0,0.0,64,0.04,CLR,,0.04,WeatherDisplay:10.37,2013-04-30 14:08:00,
2013-04-30 06:13:00,34.7,23.4,29.91,NW,315,0.0,0.0,63,0.04,CLR,,0.04,WeatherDisplay:10.37,2013-04-30 14:13:00,
2013-04-30 06:18:00,34.7,23.4,29.91,NNW,338,0.0,0.0,63,0.04,CLR,,0.04,WeatherDisplay:10.37,2013-04-30 14:18:00,
2013-04-30 06:23:00,34.7,23.8,29.91,NNW,338,0.0,0.0,64,0.04,CLR,,0.04,WeatherDisplay:10.37,2013-04-30 14:23:00,
2013-04-30 06:28:00,34.9,23.9,29.91,WNW,292,0.0,0.0,64,0.04,CLR,,0.04,WeatherDisplay:10.37,2013-04-30 14:28:00,
2013-04-30 06:33:00,34.9,23.9,29.91,WNW,292,0.0,0.0,64,0.04,CLR,,0.04,WeatherDisplay:10.37,2013-04-30 14:33:00,
2013-04-30 06:38:00,35.1,24.1,29.91,WNW,292,0.0,0.0,64,0.04,CLR,,0.04,WeatherDisplay:10.37,2013-04-30 14:38:00,
2013-04-30 06:43:00,35.1,24.1,29.91,North,0,0.0,0.0,64,0.04,CLR,,0.04,WeatherDisplay:10.37,2013-04-30 14:43:00,
2013-04-30 06:48:00,35.1,24.8,29.91,North,0,0.0,0.0,66,0.04,CLR,,0.04,WeatherDisplay:10.37,2013-04-30 14:48:00,
2013-04-30 06:53:00,35.2,24.6,29.91,North,0,0.0,0.0,65,0.00,CLR,,0.04,WeatherDisplay:10.37,2013-04-30 14:53:00,
2013-04-30 06:58:00,35.4,25.2,29.91,NNW,338,0.0,0.0,66,0.00,CLR,,0.04,WeatherDisplay:10.37,2013-04-30 14:58:00,
2013-04-30 07:03:00,35.4,25.9,29.91,NNW,338,2.3,2.3,68,0.00,CLR,,0.04,WeatherDisplay:10.37,2013-04-30 15:03:00,
2013-04-30 07:08:00,35.4,25.9,29.91,North,0,2.3,2.4,68,0.00,CLR,,0.04,WeatherDisplay:10.37,2013-04-30 15:08:00,
2013-04-30 07:13:00,35.2,25.7,29.91,NNW,338,2.3,2.3,68,0.00,CLR,,0.04,WeatherDisplay:10.37,2013-04-30 15:13:00,
2013-04-30 07:18:00,35.2,25.0,29.91,WNW,292,2.3,2.3,66,0.00,CLR,,0.04,WeatherDisplay:10.37,2013-04-30 15:18:00,
2013-04-30 07:23:00,35.2,25.4,29.91,North,0,2.3,2.4,67,0.00,CLR,,0.04,WeatherDisplay:10.37,2013-04-30 15:23:00,
2013-04-30 07:28:00,35.1,25.6,29.91,North,0,1.1,1.1,68,0.00,CLR,,0.04,WeatherDisplay:10.37,2013-04-30 15:28:00,
2013-04-30 07:33:00,35.2,25.4,29.91,NNW,338,0.0,0.0,67,0.00,CLR,,0.04,WeatherDisplay:10.37,2013-04-30 15:33:00,
2013-04-30 07:38:00,35.2,25.7,29.91,NNW,338,2.3,0.0,68,0.00,CLR,,0.04,WeatherDisplay:10.37,2013-04-30 15:38:00,
2013-04-30 07:43:00,35.4,25.9,29.91,NNW,338,1.1,1.1,68,0.00,CLR,,0.04,WeatherDisplay:10.37,2013-04-30 15:43:00,
2013-04-30 07:48:00,35.6,26.1,29.91,North,0,1.1,1.1,68,0.00,CLR,,0.04,WeatherDisplay:10.37,2013-04-30 15:48:00,
2013-04-30 07:53:00,35.8,25.9,29.91,NNW,338,0.0,0.0,67,0.00,CLR,,0.04,WeatherDisplay:10.37,2013-04-30 15:53:00,
2013-04-30 07:58:00,35.8,25.9,29.91,NNW,338,0.0,0.0,67,0.00,CLR,,0.04,WeatherDisplay:10.37,2013-04-30 15:58:00,
2013-04-30 08:03:00,36.0,25.7,29.91,NW,315,0.0,0.0,66,0.00,CLR,,0.04,WeatherDisplay:10.37,2013-04-30 16:03:00,
2013-04-30 08:08:00,36.1,25.9,29.91,NNE,22,0.0,0.0,66,0.00,CLR,,0.04,WeatherDisplay:10.37,2013-04-30 16:08:00,
2013-04-30 08:13:00,36.3,26.0,29.88,South,180,0.0,0.0,66,0.00,CLR,,0.04,WeatherDisplay:10.37,2013-04-30 16:13:00,
2013-04-30 08:18:00,36.7,26.4,29.88,SSE,158,0.0,0.0,66,0.00,CLR,,0.04,WeatherDisplay:10.37,2013-04-30 16:18:00,
2013-04-30 08:23:00,37.0,26.0,29.88,SSW,202,0.0,0.0,64,0.00,CLR,,0.04,WeatherDisplay:10.37,2013-04-30 16:23:00,
2013-04-30 08:28:00,37.6,25.7,29.91,SSW,202,0.0,0.0,62,0.00,CLR,,0.04,WeatherDisplay:10.37,2013-04-30 16:28:00,
2013-04-30 08:33:00,38.1,25.4,29.91,SSW,202,0.0,0.0,60,0.00,CLR,,0.04,WeatherDisplay:10.37,2013-04-30 16:33:00,
2013-04-30 08:38:00,38.3,24.8,29.91,ENE,68,2.2,0.0,58,0.00,CLR,,0.04,WeatherDisplay:10.37,2013-04-30 16:38:00,
2013-04-30 08:43:00,38.8,23.2,29.88,WSW,248,2.3,2.4,53,0.00,CLR,,0.04,WeatherDisplay:10.37,2013-04-30 16:43:00,
2013-04-30 08:48:00,39.4,23.2,29.88,South,180,2.4,2.4,52,0.00,CLR,,0.04,WeatherDisplay:10.37,2013-04-30 16:48:00,
2013-04-30 08:53:00,39.6,22.9,29.88,SE,135,3.5,3.5,51,0.00,CLR,,0.04,WeatherDisplay:10.37,2013-04-30 16:53:00,
2013-04-30 08:58:00,39.7,22.6,29.88,South,180,4.6,4.6,50,0.00,CLR,,0.04,WeatherDisplay:10.37,2013-04-30 16:58:00,
2013-04-30 09:03:00,40.1,22.9,29.88,SSW,202,2.3,0.0,50,0.00,CLR,,0.04,WeatherDisplay:10.37,2013-04-30 17:03:00,
2013-04-30 09:08:00,40.3,23.1,29.88,SSW,202,2.3,0.0,50,0.00,CLR,,0.04,WeatherDisplay:10.37,2013-04-30 17:08:00,
2013-04-30 09:13:00,40.5,22.8,29.88,West,270,1.6,1.6,49,0.00,CLR,,0.04,WeatherDisplay:10.37,2013-04-30 17:13:00,
2013-04-30 09:18:00,40.6,23.4,29.88,WSW,248,2.3,2.3,50,0.00,CLR,,0.04,WeatherDisplay:10.37,2013-04-30 17:18:00,
2013-04-30 09:23:00,41.0,23.3,29.88,ENE,68,3.5,3.5,49,0.00,CLR,,0.04,WeatherDisplay:10.37,2013-04-30 17:23:00,
2013-04-30 09:28:00,40.8,22.6,29.88,SSE,158,5.8,5.8,48,0.00,CLR,,0.04,WeatherDisplay:10.37,2013-04-30 17:28:00,
2013-04-30 09:33:00,41.0,23.3,29.88,WNW,292,0.0,0.0,49,0.00,CLR,,0.04,WeatherDisplay:10.37,2013-04-30 17:33:00,
2013-04-30 09:38:00,40.6,23.4,29.88,WSW,248,1.1,1.1,50,0.00,CLR,,0.04,WeatherDisplay:10.37,2013-04-30 17:38:00,
2013-04-30 09:43:00,40.5,24.2,29.88,ENE,68,2.3,0.0,52,0.00,CLR,,0.04,WeatherDisplay:10.37,2013-04-30 17:43:00,
2013-04-30 09:48:00,39.9,24.6,29.88,ESE,112,5.9,0.0,54,0.00,CLR,,0.04,WeatherDisplay:10.37,2013-04-30 17:48:00,
2013-04-30 09:53:00,40.6,23.4,29.88,SSW,202,4.6,0.0,50,0.00,CLR,,0.04,WeatherDisplay:10.37,2013-04-30 17:53:00,
2013-04-30 09:58:00,40.6,23.9,29.85,West,270,2.3,2.3,51,0.00,CLR,,0.04,WeatherDisplay:10.37,2013-04-30 17:58:00,
2013-04-30 10:03:00,41.0,22.8,29.85,ESE,112,2.2,3.8,48,0.00,CLR,,0.04,WeatherDisplay:10.37,2013-04-30 18:03:00,
2013-04-30 10:08:00,41.4,23.1,29.85,ESE,112,1.4,0.0,48,0.00,CLR,,0.04,WeatherDisplay:10.37,2013-04-30 18:08:00,
2013-04-30 10:13:00,41.7,22.9,29.88,ESE,112,2.4,0.0,47,0.00,CLR,,0.04,WeatherDisplay:10.37,2013-04-30 18:13:00,
2013-04-30 10:18:00,42.1,22.8,29.88,SSW,202,1.1,1.1,46,0.00,CLR,,0.04,WeatherDisplay:10.37,2013-04-30 18:18:00,
2013-04-30 10:23:00,41.2,24.4,29.88,NW,315,3.1,3.1,51,0.00,CLR,,0.04,WeatherDisplay:10.37,2013-04-30 18:23:00,
2013-04-30 10:28:00,40.8,25.0,29.85,North,0,0.0,0.0,53,0.00,CLR,,0.04,WeatherDisplay:10.37,2013-04-30 18:28:00,
2013-04-30 10:33:00,40.8,25.4,29.85,NNE,22,3.5,3.5,54,0.00,CLR,,0.04,WeatherDisplay:10.37,2013-04-30 18:33:00,
2013-04-30 10:38:00,41.2,25.3,29.85,North,0,1.1,0.0,53,0.00,CLR,,0.04,WeatherDisplay:10.37,2013-04-30 18:38:00,
2013-04-30 10:43:00,41.9,23.6,29.85,SSE,158,4.6,6.0,48,0.00,CLR,,0.04,WeatherDisplay:10.37,2013-04-30 18:43:00,
2013-04-30 10:48:00,42.3,22.9,29.85,SSW,202,10.4,10.4,46,0.00,CLR,,0.04,WeatherDisplay:10.37,2013-04-30 18:48:00,
2013-04-30 10:53:00,42.6,23.3,29.85,SSW,202,7.8,7.8,46,0.00,CLR,,0.04,WeatherDisplay:10.37,2013-04-30 18:53:00,
2013-04-30 10:58:00,43.3,23.9,29.85,South,180,4.6,4.6,46,0.00,CLR,,0.04,WeatherDisplay:10.37,2013-04-30 18:58:00,
2013-04-30 11:03:00,43.5,24.1,29.85,SSE,158,5.8,5.8,46,0.00,CLR,,0.04,WeatherDisplay:10.37,2013-04-30 19:03:00,
2013-04-30 11:08:00,43.3,23.9,29.85,ESE,112,5.8,5.8,46,0.00,CLR,,0.04,WeatherDisplay:10.37,2013-04-30 19:08:00,
2013-04-30 11:13:00,43.5,24.1,29.85,SSW,202,6.9,6.9,46,0.00,CLR,,0.04,WeatherDisplay:10.37,2013-04-30 19:13:00,
2013-04-30 11:18:00,43.3,23.4,29.85,SSW,202,5.8,5.8,45,0.00,CLR,,0.04,WeatherDisplay:10.37,2013-04-30 19:18:00,
2013-04-30 11:23:00,43.0,23.1,29.85,SSE,158,7.6,7.6,45,0.00,CLR,,0.04,WeatherDisplay:10.37,2013-04-30 19:23:00,
2013-04-30 11:28:00,43.0,23.6,29.85,SE,135,8.1,8.1,46,0.00,CLR,,0.04,WeatherDisplay:10.37,2013-04-30 19:28:00,
2013-04-30 11:33:00,43.5,24.1,29.85,SSW,202,3.3,3.3,46,0.00,CLR,,0.04,WeatherDisplay:10.37,2013-04-30 19:33:00,
2013-04-30 11:38:00,43.5,24.1,29.85,SSE,158,5.8,5.8,46,0.04,RA,,0.08,WeatherDisplay:10.37,2013-04-30 19:38:00,
2013-04-30 11:43:00,43.9,24.9,29.85,SW,225,4.9,4.9,47,0.04,RA,,0.08,WeatherDisplay:10.37,2013-04-30 19:43:00,
2013-04-30 11:48:00,43.3,23.9,29.85,SSW,202,4.6,4.6,46,0.04,,,0.08,WeatherDisplay:10.37,2013-04-30 19:48:00,
2013-04-30 11:53:00,43.5,24.1,29.85,SW,225,4.6,4.6,46,0.04,CLR,,0.08,WeatherDisplay:10.37,2013-04-30 19:53:00,
2013-04-30 11:58:00,43.7,24.2,29.85,WSW,248,2.4,2.4,46,0.04,CLR,,0.08,WeatherDisplay:10.37,2013-04-30 19:58:00,
2013-04-30 12:03:00,43.7,23.7,29.85,SSW,202,3.5,3.5,45,0.04,CLR,,0.08,WeatherDisplay:10.37,2013-04-30 20:03:00,
2013-04-30 12:08:00,43.3,23.4,29.85,SSW,202,9.2,9.2,45,0.04,CLR,,0.08,WeatherDisplay:10.37,2013-04-30 20:08:00,
2013-04-30 12:13:00,43.2,23.8,29.85,SSE,158,3.5,3.5,46,0.04,CLR,,0.08,WeatherDisplay:10.37,2013-04-30 20:13:00,
2013-04-30 12:18:00,43.2,23.8,29.85,ESE,112,3.6,3.6,46,0.04,CLR,,0.08,WeatherDisplay:10.37,2013-04-30 20:18:00,
2013-04-30 12:23:00,43.5,24.6,29.85,SSE,158,3.5,3.5,47,0.08,RA,,0.12,WeatherDisplay:10.37,2013-04-30 20:23:00,
2013-04-30 12:28:00,43.3,23.9,29.85,WNW,292,9.4,9.4,46,0.08,RA,,0.12,WeatherDisplay:10.37,2013-04-30 20:28:00,
2013-04-30 12:33:00,43.7,24.2,29.85,SSE,158,4.0,4.0,46,0.08,,,0.12,WeatherDisplay:10.37,2013-04-30 20:33:00,
2013-04-30 12:38:00,43.7,24.2,29.85,South,180,4.9,4.9,46,0.04,CLR,,0.12,WeatherDisplay:10.37,2013-04-30 20:38:00,
2013-04-30 12:43:00,43.3,23.9,29.85,SW,225,6.9,6.9,46,0.04,CLR,,0.12,WeatherDisplay:10.37,2013-04-30 20:43:00,
2013-04-30 12:48:00,43.7,24.2,29.85,WSW,248,2.3,2.3,46,0.04,CLR,,0.12,WeatherDisplay:10.37,2013-04-30 20:48:00,
2013-04-30 12:53:00,43.9,24.9,29.85,SSW,202,4.6,4.6,47,0.04,CLR,,0.12,WeatherDisplay:10.37,2013-04-30 20:53:00,
2013-04-30 12:58:00,43.3,23.9,29.85,South,180,4.3,4.3,46,0.04,CLR,,0.12,WeatherDisplay:10.37,2013-04-30 20:58:00,
2013-04-30 13:03:00,43.3,24.4,29.85,SSE,158,3.6,3.6,47,0.04,CLR,,0.12,WeatherDisplay:10.37,2013-04-30 21:03:00,
2013-04-30 13:08:00,43.0,24.1,29.85,South,180,3.5,3.5,47,0.04,CLR,,0.12,WeatherDisplay:10.37,2013-04-30 21:08:00,
2013-04-30 13:13:00,43.3,24.4,29.85,SSE,158,4.6,4.6,47,0.04,CLR,,0.12,WeatherDisplay:10.37,2013-04-30 21:13:00,
2013-04-30 13:18:00,43.2,24.3,29.85,SSW,202,2.3,2.3,47,0.04,CLR,,0.12,WeatherDisplay:10.37,2013-04-30 21:18:00,
2013-04-30 13:23:00,43.2,24.3,29.85,ESE,112,3.5,3.5,47,0.04,RA,,0.16,WeatherDisplay:10.37,2013-04-30 21:23:00,
2013-04-30 13:28:00,41.0,25.2,29.85,NNE,22,6.9,6.9,53,0.04,RA,,0.16,WeatherDisplay:10.37,2013-04-30 21:28:00,
2013-04-30 13:33:00,40.5,26.0,29.85,NNE,22,2.9,0.0,56,0.04,,,0.16,WeatherDisplay:10.37,2013-04-30 21:33:00,
2013-04-30 13:38:00,40.5,25.5,29.85,NNW,338,4.0,4.0,55,0.04,CLR,,0.16,WeatherDisplay:10.37,2013-04-30 21:38:00,
2013-04-30 13:43:00,39.7,27.4,29.85,North,0,3.5,3.8,61,0.04,CLR,,0.16,WeatherDisplay:10.37,2013-04-30 21:43:00,
2013-04-30 13:48:00,40.1,27.7,29.85,SSW,202,1.1,0.0,61,0.04,CLR,,0.16,WeatherDisplay:10.37,2013-04-30 21:48:00,
2013-04-30 13:53:00,40.1,27.3,29.85,NNE,22,0.0,0.0,60,0.04,CLR,,0.16,WeatherDisplay:10.37,2013-04-30 21:53:00,
2013-04-30 13:58:00,39.7,28.2,29.85,WNW,292,2.0,2.4,63,0.04,CLR,,0.16,WeatherDisplay:10.37,2013-04-30 21:58:00,
2013-04-30 14:03:00,38.7,29.0,29.85,North,0,5.8,5.8,68,0.04,CLR,,0.16,WeatherDisplay:10.37,2013-04-30 22:03:00,
2013-04-30 14:08:00,38.3,28.7,29.85,NNW,338,2.9,2.9,68,0.04,CLR,,0.16,WeatherDisplay:10.37,2013-04-30 22:08:00,
2013-04-30 14:13:00,37.6,29.7,29.85,NNW,338,3.5,3.5,73,0.04,CLR,,0.16,WeatherDisplay:10.37,2013-04-30 22:13:00,
2013-04-30 14:18:00,37.4,29.9,29.85,NW,315,2.4,2.4,74,0.04,CLR,,0.16,WeatherDisplay:10.37,2013-04-30 22:18:00,
2013-04-30 14:23:00,37.0,30.5,29.85,NW,315,2.9,2.9,77,0.00,CLR,,0.16,WeatherDisplay:10.37,2013-04-30 22:23:00,
2013-04-30 14:28:00,36.3,31.7,29.85,NNW,338,5.8,5.8,83,0.00,CLR,,0.16,WeatherDisplay:10.37,2013-04-30 22:28:00,
2013-04-30 14:33:00,36.1,32.1,29.85,North,0,3.5,3.5,85,0.00,CLR,,0.16,WeatherDisplay:10.37,2013-04-30 22:33:00,
2013-04-30 14:38:00,36.5,32.4,29.85,North,0,2.4,2.4,85,0.00,CLR,,0.16,WeatherDisplay:10.37,2013-04-30 22:38:00,
2013-04-30 14:43:00,36.5,32.1,29.85,ENE,68,2.3,2.3,84,0.04,RA,,0.20,WeatherDisplay:10.37,2013-04-30 22:43:00,
2013-04-30 14:48:00,36.7,32.0,29.85,NNW,338,2.3,2.3,83,0.04,RA,,0.20,WeatherDisplay:10.37,2013-04-30 22:48:00,
2013-04-30 14:53:00,36.3,32.2,29.85,North,0,2.3,2.3,85,0.04,,,0.20,WeatherDisplay:10.37,2013-04-30 22:53:00,
2013-04-30 14:58:00,36.3,32.8,29.85,NNE,22,4.6,4.6,87,0.04,CLR,,0.20,WeatherDisplay:10.37,2013-04-30 22:58:00,
2013-04-30 15:03:00,37.0,32.9,29.85,NE,45,0.0,0.0,85,0.04,CLR,,0.20,WeatherDisplay:10.37,2013-04-30 23:03:00,
2013-04-30 15:08:00,36.9,33.1,29.85,NNE,22,3.5,3.5,86,0.04,CLR,,0.20,WeatherDisplay:10.37,2013-04-30 23:08:00,
2013-04-30 15:13:00,37.0,33.5,29.85,NE,45,3.5,3.6,87,0.04,CLR,,0.20,WeatherDisplay:10.37,2013-04-30 23:13:00,
2013-04-30 15:18:00,37.2,33.7,29.85,NNW,338,3.6,3.6,87,0.04,CLR,,0.20,WeatherDisplay:10.37,2013-04-30 23:18:00,
2013-04-30 15:23:00,37.0,33.2,29.85,NNE,22,3.6,3.6,86,0.04,CLR,,0.20,WeatherDisplay:10.37,2013-04-30 23:23:00,
2013-04-30 15:28:00,37.0,33.5,29.85,North,0,4.6,4.6,87,0.04,CLR,,0.20,WeatherDisplay:10.37,2013-04-30 23:28:00,
2013-04-30 15:33:00,37.0,33.8,29.85,NNW,338,3.5,3.5,88,0.04,CLR,,0.20,WeatherDisplay:10.37,2013-04-30 23:33:00,
2013-04-30 15:38:00,36.9,33.9,29.85,NNE,22,2.3,3.3,89,0.04,CLR,,0.20,WeatherDisplay:10.37,2013-04-30 23:38:00,
2013-04-30 15:43:00,36.9,34.2,29.85,NNW,338,4.6,4.6,90,0.00,CLR,,0.20,WeatherDisplay:10.37,2013-04-30 23:43:00,
2013-04-30 15:48:00,37.0,34.4,29.85,NNE,22,4.6,4.6,90,0.00,CLR,,0.20,WeatherDisplay:10.37,2013-04-30 23:48:00,
2013-04-30 15:53:00,36.9,34.2,29.85,North,0,4.0,4.0,90,0.00,CLR,,0.20,WeatherDisplay:10.37,2013-04-30 23:53:00,
2013-04-30 15:58:00,36.7,33.7,29.83,NNW,338,3.6,4.3,89,0.00,CLR,,0.20,WeatherDisplay:10.37,2013-04-30 23:58:00,
2013-04-30 16:03:00,36.5,33.6,29.83,NNW,338,2.9,2.9,89,0.04,RA,,0.24,WeatherDisplay:10.37,2013-05-01 00:03:00,
2013-04-30 16:08:00,36.9,34.2,29.83,North,0,2.9,2.9,90,0.04,RA,,0.24,WeatherDisplay:10.37,2013-05-01 00:08:00,
2013-04-30 16:13:00,36.5,33.8,29.83,NNW,338,2.9,2.9,90,0.04,,,0.24,WeatherDisplay:10.37,2013-05-01 00:13:00,
2013-04-30 16:18:00,36.3,33.7,29.83,NNW,338,3.6,3.6,90,0.04,CLR,,0.24,WeatherDisplay:10.37,2013-05-01 00:18:00,
2013-04-30 16:23:00,36.3,33.9,29.83,NNW,338,1.6,2.9,91,0.04,CLR,,0.24,WeatherDisplay:10.37,2013-05-01 00:23:00,
2013-04-30 16:44:00,36.3,33.9,29.83,NNW,338,3.3,3.3,91,0.04,CLR,,0.24,WeatherDisplay:10.37,2013-05-01 00:44:00,
2013-04-30 16:49:00,37.6,34.9,29.83,North,0,0.0,0.0,90,0.04,CLR,,0.24,WeatherDisplay:10.37,2013-05-01 00:49:00,
2013-04-30 16:54:00,37.8,35.1,29.83,NNW,338,1.4,1.4,90,0.08,RA,,0.28,WeatherDisplay:10.37,2013-05-01 00:54:00,
2013-04-30 16:59:00,37.6,34.6,29.83,NNE,22,1.1,1.4,89,0.08,RA,,0.28,WeatherDisplay:10.37,2013-05-01 00:59:00,
2013-04-30 17:04:00,37.4,34.2,29.83,NW,315,1.4,1.4,88,0.08,CLR,,0.28,WeatherDisplay:10.37,2013-05-01 01:04:00,
2013-04-30 17:09:00,37.4,34.2,29.83,North,0,0.0,1.6,88,0.08,CLR,,0.28,WeatherDisplay:10.37,2013-05-01 01:09:00,
2013-04-30 17:14:00,37.4,34.2,29.83,North,0,0.0,0.9,88,0.08,CLR,,0.28,WeatherDisplay:10.37,2013-05-01 01:14:00,
2013-04-30 17:19:00,37.4,34.2,29.83,WNW,292,0.0,0.0,88,0.08,CLR,,0.28,WeatherDisplay:10.37,2013-05-01 01:19:00,
2013-04-30 17:24:00,37.9,34.4,29.83,WNW,292,0.0,0.0,87,0.04,CLR,,0.28,WeatherDisplay:10.37,2013-05-01 01:24:00,
2013-04-30 17:29:00,38.5,34.4,29.83,WNW,292,0.0,0.0,85,0.04,CLR,,0.28,WeatherDisplay:10.37,2013-05-01 01:29:00,
2013-04-30 17:34:00,38.8,34.4,29.83,SW,225,0.0,0.0,84,0.04,CLR,,0.28,WeatherDisplay:10.37,2013-05-01 01:34:00,
2013-04-30 17:39:00,38.7,33.3,29.83,South,180,3.6,0.0,81,0.04,CLR,,0.28,WeatherDisplay:10.37,2013-05-01 01:39:00,
2013-04-30 17:44:00,38.8,33.2,29.80,SW,225,3.5,3.5,80,0.04,CLR,,0.28,WeatherDisplay:10.37,2013-05-01 01:44:00,
2013-04-30 17:49:00,38.8,32.9,29.80,South,180,0.0,0.9,79,0.04,CLR,,0.28,WeatherDisplay:10.37,2013-05-01 01:49:00,
2013-04-30 17:54:00,38.8,32.9,29.80,SW,225,1.1,1.1,79,0.00,CLR,,0.28,WeatherDisplay:10.37,2013-05-01 01:54:00,
2013-04-30 17:59:00,39.0,33.1,29.80,SSW,202,1.1,0.0,79,0.00,CLR,,0.28,WeatherDisplay:10.37,2013-05-01 01:59:00,
2013-04-30 18:04:00,38.5,32.2,29.80,SSW,202,1.1,0.0,78,0.00,CLR,,0.28,WeatherDisplay:10.37,2013-05-01 02:04:00,
2013-04-30 18:09:00,38.3,32.0,29.80,SSW,202,2.0,0.0,78,0.04,RA,,0.31,WeatherDisplay:10.37,2013-05-01 02:09:00,
2013-04-30 18:14:00,38.1,32.2,29.80,SW,225,0.0,0.0,79,0.04,RA,,0.31,WeatherDisplay:10.37,2013-05-01 02:14:00,
2013-04-30 18:19:00,38.3,32.7,29.80,WSW,248,3.5,3.5,80,0.04,,,0.31,WeatherDisplay:10.37,2013-05-01 02:19:00,
2013-04-30 18:24:00,38.7,33.0,29.80,WSW,248,0.0,0.0,80,0.04,CLR,,0.31,WeatherDisplay:10.37,2013-05-01 02:24:00,
2013-04-30 18:29:00,38.5,32.8,29.80,WSW,248,2.6,2.6,80,0.04,CLR,,0.31,WeatherDisplay:10.37,2013-05-01 02:29:00,
2013-04-30 18:34:00,38.3,32.4,29.80,WSW,248,2.3,0.0,79,0.04,CLR,,0.31,WeatherDisplay:10.37,2013-05-01 02:34:00,
2013-04-30 18:39:00,38.3,32.4,29.80,WSW,248,1.1,0.0,79,0.04,CLR,,0.31,WeatherDisplay:10.37,2013-05-01 02:39:00,
2013-04-30 18:44:00,38.1,32.2,29.80,WSW,248,2.3,0.0,79,0.04,CLR,,0.31,WeatherDisplay:10.37,2013-05-01 02:44:00,
2013-04-30 18:49:00,38.1,32.2,29.80,WSW,248,2.3,2.3,79,0.04,CLR,,0.31,WeatherDisplay:10.37,2013-05-01 02:49:00,
2013-04-30 18:54:00,38.1,31.9,29.80,WSW,248,0.0,0.0,78,0.04,CLR,,0.31,WeatherDisplay:10.37,2013-05-01 02:54:00,
2013-04-30 18:59:00,37.9,32.0,29.80,SW,225,3.5,3.5,79,0.04,CLR,,0.31,WeatherDisplay:10.37,2013-05-01 02:59:00,
2013-04-30 19:04:00,37.8,31.8,29.80,SW,225,2.3,2.3,79,0.04,CLR,,0.31,WeatherDisplay:10.37,2013-05-01 03:04:00,
2013-04-30 19:09:00,37.6,31.7,29.80,SW,225,0.0,0.0,79,0.00,CLR,,0.31,WeatherDisplay:10.37,2013-05-01 03:09:00,
2013-04-30 19:14:00,37.6,31.7,29.80,SW,225,0.0,0.0,79,0.00,CLR,,0.31,WeatherDisplay:10.37,2013-05-01 03:14:00,
2013-04-30 19:19:00,37.6,31.7,29.80,SW,225,0.0,0.0,79,0.00,CLR,,0.31,WeatherDisplay:10.37,2013-05-01 03:19:00,
2013-04-30 19:24:00,37.6,31.7,29.80,SW,225,0.0,0.0,79,0.00,CLR,,0.35,WeatherDisplay:10.37,2013-05-01 03:24:00,
2013-04-30 19:29:00,37.6,31.7,29.77,SW,225,0.0,0.0,79,0.04,RA,,0.35,WeatherDisplay:10.37,2013-05-01 03:29:00,
2013-04-30 19:34:00,37.6,31.7,29.77,SSW,202,0.0,0.0,79,0.04,RA,,0.35,WeatherDisplay:10.37,2013-05-01 03:34:00,
2013-04-30 19:39:00,37.9,32.3,29.77,SSW,202,0.0,0.0,80,0.04,CLR,,0.35,WeatherDisplay:10.37,2013-05-01 03:39:00,
2013-04-30 19:44:00,37.6,32.0,29.77,NNE,22,0.0,0.0,80,0.04,CLR,,0.35,WeatherDisplay:10.37,2013-05-01 03:44:00,
2013-04-30 19:49:00,37.2,31.9,29.77,North,0,0.0,0.0,81,0.04,CLR,,0.35,WeatherDisplay:10.37,2013-05-01 03:49:00,
2013-04-30 19:54:00,37.0,31.8,29.77,West,270,0.0,0.0,81,0.04,CLR,,0.35,WeatherDisplay:10.37,2013-05-01 03:54:00,
2013-04-30 19:59:00,36.9,31.9,29.77,WNW,292,2.3,0.0,82,0.04,CLR,,0.35,WeatherDisplay:10.37,2013-05-01 03:59:00,
2013-04-30 20:01:00,36.9,31.9,29.77,North,0,0.0,0.0,82,0.04,CLR,,0.35,WeatherDisplay:10.37,2013-05-01 04:01:00,
2013-04-30 20:02:00,36.9,31.9,29.77,NNW,338,0.0,0.0,82,0.04,CLR,,0.35,WeatherDisplay:10.37,2013-05-01 04:02:00,
2013-04-30 20:03:00,36.9,32.2,29.77,North,0,0.0,0.0,83,0.04,CLR,,0.35,WeatherDisplay:10.37,2013-05-01 04:03:00,
2013-04-30 20:08:00,36.7,32.0,29.77,NW,315,1.1,0.0,83,0.04,CLR,,0.35,WeatherDisplay:10.37,2013-05-01 04:08:00,
2013-04-30 20:13:00,36.5,32.1,29.77,North,0,0.0,0.0,84,0.04,CLR,,0.35,WeatherDisplay:10.37,2013-05-01 04:13:00,
2013-04-30 20:18:00,36.3,31.7,29.77,North,0,0.0,0.0,83,0.04,CLR,,0.35,WeatherDisplay:10.37,2013-05-01 04:18:00,
2013-04-30 20:23:00,36.1,32.1,29.77,North,0,2.4,2.4,85,0.04,CLR,,0.35,WeatherDisplay:10.37,2013-05-01 04:23:00,
2013-04-30 20:28:00,35.8,32.0,29.77,NNW,338,2.3,2.3,86,0.00,CLR,,0.35,WeatherDisplay:10.37,2013-05-01 04:28:00,
2013-04-30 20:33:00,35.8,32.3,29.77,NNW,338,2.3,2.3,87,0.00,CLR,,0.35,WeatherDisplay:10.37,2013-05-01 04:33:00,
2013-04-30 20:34:00,35.8,32.3,29.77,North,0,1.1,0.0,87,0.00,CLR,,0.35,WeatherDisplay:10.37,2013-05-01 04:34:00,
2013-04-30 20:39:00,35.4,32.2,29.77,North,0,2.0,0.0,88,0.00,CLR,,0.35,WeatherDisplay:10.37,2013-05-01 04:39:00,
2013-04-30 20:44:00,34.9,32.0,29.77,NNW,338,2.3,0.0,89,0.00,CLR,,0.35,WeatherDisplay:10.37,2013-05-01 04:44:00,
2013-04-30 20:49:00,34.9,32.0,29.77,NNW,338,1.4,1.4,89,0.00,CLR,,0.35,WeatherDisplay:10.37,2013-05-01 04:49:00,
2013-04-30 20:54:00,34.5,31.6,29.77,North,0,2.3,2.3,89,0.00,CLR,,0.35,WeatherDisplay:10.37,2013-05-01 04:54:00,
2013-04-30 20:59:00,34.3,31.7,29.77,NNW,338,0.0,0.0,90,0.00,CLR,,0.35,WeatherDisplay:10.37,2013-05-01 04:59:00,
2013-04-30 21:04:00,34.3,31.7,29.77,NNW,338,0.0,0.0,90,0.00,CLR,,0.35,WeatherDisplay:10.37,2013-05-01 05:04:00,
2013-04-30 21:09:00,34.2,31.8,29.77,NNW,338,0.0,0.0,91,0.00,CLR,,0.35,WeatherDisplay:10.37,2013-05-01 05:09:00,
2013-04-30 21:14:00,34.0,31.6,29.77,NNW,338,0.0,0.0,91,0.00,CLR,,0.35,WeatherDisplay:10.37,2013-05-01 05:14:00,
2013-04-30 21:19:00,34.0,31.6,29.77,North,0,0.0,0.0,91,0.00,CLR,,0.35,WeatherDisplay:10.37,2013-05-01 05:19:00,
2013-04-30 21:25:00,33.8,31.7,29.77,North,0,0.0,0.0,92,0.00,CLR,,0.35,WeatherDisplay:10.37,2013-05-01 05:25:00,
2013-04-30 21:30:00,34.0,32.2,29.77,North,0,0.0,0.0,93,0.00,CLR,,0.35,WeatherDisplay:10.37,2013-05-01 05:30:00,
2013-04-30 21:35:00,33.8,32.0,29.77,NNW,338,0.0,0.0,93,0.00,CLR,,0.35,WeatherDisplay:10.37,2013-05-01 05:35:00,
2013-04-30 21:40:00,33.8,32.0,29.77,NNE,22,0.0,0.0,93,0.00,CLR,,0.35,WeatherDisplay:10.37,2013-05-01 05:40:00,
2013-04-30 21:45:00,33.6,31.8,29.77,NNW,338,0.0,0.0,93,0.00,CLR,,0.35,WeatherDisplay:10.37,2013-05-01 05:45:00,
2013-04-30 21:50:00,33.8,32.3,29.77,NNW,338,0.0,0.0,94,0.00,CLR,,0.35,WeatherDisplay:10.37,2013-05-01 05:50:00,
2013-04-30 21:55:00,34.0,32.4,29.77,NNW,338,0.0,0.0,94,0.00,CLR,,0.35,WeatherDisplay:10.37,2013-05-01 05:55:00,
2013-04-30 22:00:00,33.6,32.1,29.74,North,0,0.0,0.0,94,0.00,CLR,,0.35,WeatherDisplay:10.37,2013-05-01 06:00:00,
2013-04-30 22:05:00,33.6,32.1,29.74,NNW,338,0.0,0.0,94,0.00,CLR,,0.35,WeatherDisplay:10.37,2013-05-01 06:05:00,
2013-04-30 22:10:00,33.4,31.9,29.74,NNW,338,0.0,0.0,94,0.00,CLR,,0.35,WeatherDisplay:10.37,2013-05-01 06:10:00,
2013-04-30 22:15:00,33.6,32.1,29.77,NNW,338,0.0,0.0,94,0.00,CLR,,0.35,WeatherDisplay:10.37,2013-05-01 06:15:00,
2013-04-30 22:20:00,33.4,31.9,29.77,NNW,338,0.0,0.0,94,0.00,CLR,,0.35,WeatherDisplay:10.37,2013-05-01 06:20:00,
2013-04-30 22:25:00,33.4,31.9,29.77,NNW,338,0.0,0.0,94,0.00,CLR,,0.35,WeatherDisplay:10.37,2013-05-01 06:25:00,
2013-04-30 22:30:00,33.4,31.6,29.74,NE,45,0.0,0.0,93,0.00,CLR,,0.35,WeatherDisplay:10.37,2013-05-01 06:30:00,
2013-04-30 22:35:00,33.4,31.9,29.74,NE,45,0.0,0.0,94,0.00,CLR,,0.35,WeatherDisplay:10.37,2013-05-01 06:35:00,
2013-04-30 22:40:00,33.4,32.2,29.74,NNW,338,0.0,0.0,95,0.00,CLR,,0.35,WeatherDisplay:10.37,2013-05-01 06:40:00,
2013-04-30 22:45:00,33.4,32.2,29.74,NNW,338,0.0,0.0,95,0.00,CLR,,0.35,WeatherDisplay:10.37,2013-05-01 06:45:00,
2013-04-30 22:50:00,33.4,32.2,29.74,NW,315,0.0,0.0,95,0.00,CLR,,0.35,WeatherDisplay:10.37,2013-05-01 06:50:00,
2013-04-30 22:55:00,33.6,32.6,29.74,North,0,0.0,0.0,96,0.00,CLR,,0.35,WeatherDisplay:10.37,2013-05-01 06:55:00,
2013-04-30 23:00:00,33.6,32.6,29.74,NE,45,0.0,0.0,96,0.00,CLR,,0.35,WeatherDisplay:10.37,2013-05-01 07:00:00,
2013-04-30 23:05:00,33.8,33.0,29.74,NNW,338,0.0,0.0,97,0.00,CLR,,0.35,WeatherDisplay:10.37,2013-05-01 07:05:00,
2013-04-30 23:10:00,33.8,33.0,29.74,NW,315,0.0,0.0,97,0.00,CLR,,0.35,WeatherDisplay:10.37,2013-05-01 07:10:00,
2013-04-30 23:15:00,33.8,33.0,29.77,South,180,0.0,0.0,97,0.00,CLR,,0.35,WeatherDisplay:10.37,2013-05-01 07:15:00,
2013-04-30 23:20:00,33.8,32.8,29.77,South,180,0.0,0.0,96,0.00,CLR,,0.35,WeatherDisplay:10.37,2013-05-01 07:20:00,
2013-04-30 23:25:00,33.6,32.6,29.77,SSE,158,0.0,0.0,96,0.00,CLR,,0.35,WeatherDisplay:10.37,2013-05-01 07:25:00,
2013-04-30 23:30:00,33.6,32.3,29.74,SSE,158,0.0,0.0,95,0.00,CLR,,0.35,WeatherDisplay:10.37,2013-05-01 07:30:00,
2013-04-30 23:35:00,33.4,32.2,29.74,SSE,158,0.0,0.0,95,0.00,CLR,,0.35,WeatherDisplay:10.37,2013-05-01 07:35:00,
2013-04-30 23:40:00,33.3,32.0,29.74,SSE,158,0.0,0.0,95,0.00,CLR,,0.35,WeatherDisplay:10.37,2013-05-01 07:40:00,
2013-04-30 23:45:00,33.1,31.5,29.74,SSE,158,0.0,0.0,94,0.00,CLR,,0.35,WeatherDisplay:10.37,2013-05-01 07:45:00,
2013-04-30 23:50:00,32.7,31.2,29.74,NNW,338,0.0,0.0,94,0.00,CLR,,0.35,WeatherDisplay:10.37,2013-05-01 07:50:00,
2013-04-30 23:55:00,32.7,31.4,29.74,North,0,0.0,0.0,95,0.00,CLR,,0.35,WeatherDisplay:10.37,2013-05-01 07:55:00,